Terminal Aerodrome Forecast
Issued by NWS Des Moines, IA

Home | Current Version | Previous Version | Text Only | Print | Product List | Glossary On
Versions: 1 2 3 4 5 6 7 8 9 10 11 12 13 14 15 16 17 18 19 20 21 22
000
FTUS43 KDMX 041739
TAFDSM
TAF
KDSM 041739Z 0418/0518 22007KT P6SM SCT004 OVC008
      TEMPO 0418/0419 OVC004
     FM042100 25008KT P6SM BKN012
     FM050800 22004KT 4SM BR FEW015
     FM051500 18010KT P6SM BKN080=

USA.gov is the U.S. government's official web portal to all federal, state and local government web resources and services.